Home > Products > Valid Products > TAF

000
FTUS41 KRNK 301133
TAFDAN
TAF
KDAN 301133Z 3012/3112 04004KT P6SM OVC011
     FM301700 07005KT P6SM BKN035
     FM310500 00000KT 4SM BR SCT040 BKN250
     FM310800 00000KT 3SM BR SCT005 BKN250=



000
FTUS41 KRNK 300536
TAFDAN
TAF
KDAN 300536Z 3006/3106 35003KT P6SM VCSH SCT025 OVC050
     FM300800 VRB03KT 3SM BR VCSH OVC005
     FM301300 05003KT 4SM BR OVC010
     FM301500 06004KT P6SM OVC015
     FM301700 08005KT P6SM VCTS BKN040CB
     FM310000 06003KT P6SM BKN040=



000
FTUS41 KRNK 300536
TAFLWB
TAF
KLWB 300536Z 3006/3106 00000KT 5SM BR SCT007 BKN090
     FM300800 00000KT 2SM BR SCT001
     FM301200 00000KT P6SM SCT015 BKN050
     FM301800 34005KT P6SM VCTS BKN040CB
     FM310000 00000KT P6SM SCT050 BKN250=



000
FTUS41 KRNK 300536
TAFLYH
TAF
KLYH 300536Z 3006/3106 VRB03KT P6SM BKN040
     FM300800 00000KT 4SM BR OVC007
     FM301100 VRB03KT P6SM BKN015
     FM301400 35003KT P6SM SCT020 BKN060
     FM302000 08004KT P6SM VCTS BKN030CB
     FM310000 00000KT P6SM SCT040 OVC100=



000
FTUS41 KRNK 300536
TAFBLF
TAF
KBLF 300536Z 3006/3106 00000KT P6SM OVC110
     FM300800 00000KT P6SM VCSH SCT030 OVC080
      TEMPO 3009/3011 4SM BR BKN030
     FM301200 VRB03KT P6SM SCT025 OVC100
     FM301600 34006KT P6SM BKN035
     FM310000 00000KT P6SM SCT045 BKN250=



000
FTUS41 KRNK 300536
TAFROA
TAF
KROA 300536Z 3006/3106 34003KT P6SM OVC022
      TEMPO 3006/3010 4SM BR SCT022
     FM301200 VRB03KT P6SM SCT020 BKN080
     FM301800 07006KT P6SM VCTS BKN040CB
     FM310000 10004KT P6SM SCT050 BKN250=



000
FTUS41 KRNK 300338 AAB
TAFLYH
TAF AMD
KLYH 300338Z 3004/3024 02004KT P6SM VCSH SCT030
     FM300500 VRB04KT P6SM VCSH OVC025
     FM300800 00000KT 4SM BR OVC007
     FM301200 VRB04KT P6SM BKN015
     FM301600 05005KT P6SM VCTS BKN030CB=



000
FTUS41 KRNK 291733
TAFBLF
TAF
KBLF 291733Z 2918/3018 VRB03KT P6SM VCSH OVC070
     FM300300 VRB03KT P6SM SCT030 BKN060
     FM301400 VRB03KT P6SM BKN050=



000
FTUS41 KRNK 291733
TAFROA
TAF
KROA 291733Z 2918/3018 VRB04KT P6SM VCSH SCT040 BKN080
     FM300000 VRB03KT P6SM VCSH SCT020 BKN040
     FM301400 01004KT P6SM OVC025=



000
FTUS41 KRNK 291733
TAFLWB
TAF
KLWB 291733Z 2918/3018 00000KT P6SM -SHRA SCT025 OVC070
     FM300300 00000KT 5SM BR SCT025 OVC060
     FM301500 VRB03KT P6SM OVC050=



000
FTUS41 KRNK 291733
TAFLYH
TAF
KLYH 291733Z 2918/3018 VRB03KT P6SM -SHRA SCT035 OVC060
      TEMPO 2920/2924 4SM -SHRA SCT025 OVC035
     FM300300 VRB03KT P6SM VCSH OVC035
     FM300600 00000KT 5SM BR OVC020
     FM300900 00000KT 4SM BR OVC007
     FM301500 VRB03KT P6SM OVC015=



000
FTUS41 KRNK 291733
TAFDAN
TAF
KDAN 291733Z 2918/3018 VRB03KT P6SM -SHRA SCT035 OVC060
      TEMPO 2919/2921 3SM -SHRA SCT005 BKN015 OVC030
     FM300300 VRB03KT P6SM VCSH OVC035
     FM300600 00000KT 5SM BR OVC020
     FM300900 00000KT 3SM BR OVC007
     FM301500 VRB03KT P6SM OVC015=



000
FTUS41 KRNK 282329
TAFLYH
TAF
KLYH 282329Z 2900/2924 17004KT P6SM BKN250
     FM290700 00000KT P6SM OVC100
     FM291000 VRB03KT P6SM OVC060
     FM291500 03003KT 5SM -RA OVC030
     FM291900 05005KT 4SM RA BR OVC020=



000
FTUS41 KRNK 282329
TAFLWB
TAF
KLWB 282329Z 2900/2924 13003KT P6SM BKN250
     FM290900 00000KT P6SM OVC100
     FM291600 VRB03KT P6SM OVC050
     FM292000 20003KT P6SM -RA OVC035=



000
FTUS41 KRNK 282329
TAFROA
TAF
KROA 282329Z 2900/2924 14006KT P6SM BKN250
     FM290700 13003KT P6SM OVC100
     FM291100 VRB03KT P6SM OVC060
     FM291600 34004KT 6SM -RA OVC040
     FM292200 33004KT 4SM -RA BR OVC025=



000
FTUS41 KRNK 282329
TAFBLF
TAF
KBLF 282329Z 2900/2924 15004KT P6SM BKN250
     FM290900 12004KT P6SM OVC100
     FM291600 15003KT P6SM -RA OVC035
     FM292100 12003KT P6SM OVC050=



000
FTUS41 KRNK 282329
TAFDAN
TAF
KDAN 282329Z 2900/2924 12004KT P6SM BKN250
     FM290500 VRB03KT P6SM OVC080
     FM290900 03003KT P6SM OVC050
     FM291300 02006KT 6SM -RA OVC035
     FM291800 04006KT 4SM RA BR OVC020=



000
FTUS41 KRNK 281739
TAFBLF
TAF
KBLF 281739Z 2818/2918 18006KT P6SM SCT050 SCT250
     FM290300 16005KT P6SM BKN250
     FM291000 12006KT P6SM OVC100=



000
FTUS41 KRNK 281739
TAFDAN
TAF
KDAN 281739Z 2818/2918 15005KT P6SM FEW060 SCT250
     FM290000 12004KT P6SM BKN250
     FM290500 VRB03KT P6SM OVC080
     FM291000 11004KT P6SM -RA SCT030 OVC050
     FM291300 06004KT 4SM RA SCT018 OVC030=



000
FTUS41 KRNK 281739
TAFLYH
TAF
KLYH 281739Z 2818/2918 18006KT P6SM FEW060 SCT250
     FM290000 13004KT P6SM BKN250
     FM290600 00000KT P6SM OVC100
     FM291100 VRB03KT P6SM OVC060
     FM291400 04003KT 5SM RA OVC030=



000
FTUS41 KRNK 281739
TAFROA
TAF
KROA 281739Z 2818/2918 15007KT P6SM SCT060 SCT250
     FM290000 14006KT P6SM BKN250
     FM290600 13003KT P6SM OVC100
     FM291100 VRB03KT P6SM OVC060
     FM291400 36003KT 6SM -RA OVC040=



000
FTUS41 KRNK 281739
TAFLWB
TAF
KLWB 281739Z 2818/2918 13006KT P6SM SCT060
     FM290200 00000KT P6SM SCT250
     FM291000 12003KT P6SM BKN100 OVC250=



000
FTUS41 KRNK 271723
TAFLYH
TAF
KLYH 271723Z 2718/2818 16009KT P6SM SCT025 BKN060
     FM280400 00000KT P6SM SCT250
     FM281400 19007KT P6SM SCT100 BKN250=



000
FTUS41 KRNK 271723
TAFLWB
TAF
KLWB 271723Z 2718/2818 24004KT P6SM SCT050 SCT100 BKN250
     FM272000 23007KT P6SM VCTS BKN045CB OVC090
     FM280200 00000KT 4SM BR BKN050 OVC100
      TEMPO 2808/2812 1SM BR
     FM281400 19005KT P6SM SCT050 BKN100=



000
FTUS41 KRNK 271723
TAFBLF
TAF
KBLF 271723Z 2718/2818 30006KT P6SM SCT050 BKN100
     FM271900 23006KT P6SM VCTS BKN045CB OVC090
     FM280000 VRB04KT P6SM BKN045 OVC100
     FM280600 15004KT P6SM SCT050 SCT100 BKN250
     FM281400 21007KT P6SM BKN050=



000
FTUS41 KRNK 271723
TAFDAN
TAF
KDAN 271723Z 2718/2818 22007KT P6SM SCT060 BKN250
     FM280400 00000KT P6SM SKC
     FM281500 17002KT P6SM SCT060=



000
FTUS41 KRNK 271723
TAFROA
TAF
KROA 271723Z 2718/2818 17006KT P6SM VCSH SCT030 BKN070
     FM280600 VRB03KT P6SM SCT250
     FM281500 15007KT P6SM SCT035 BKN250=



    US Dept of Commerce
    National Oceanic and Atmospheric Administration
    National Weather Service
    1325 East West Highway
    Silver Spring, MD 20910
    Page Author: NWS Internet Services Team
Disclaimer
Information Quality
Credits
Glossary
Privacy Policy
Freedom of Information Act (FOIA)
About Us
Career Opportunities